sensor_id;sensor_type;location;lat;lon;timestamp;P1;durP1;ratioP1;P2;durP2;ratioP2
3819;SDS011;1925;51.356;9.530;2022-09-09T00:00:05;1.83;;;1.23;;
3819;SDS011;1925;51.356;9.530;2022-09-09T00:02:32;2.63;;;1.10;;
3819;SDS011;1925;51.356;9.530;2022-09-09T00:07:33;2.93;;;1.53;;
3819;SDS011;1925;51.356;9.530;2022-09-09T00:15:13;3.20;;;1.10;;
3819;SDS011;1925;51.356;9.530;2022-09-09T00:17:54;2.20;;;1.20;;
3819;SDS011;1925;51.356;9.530;2022-09-09T00:20:29;2.50;;;1.33;;
3819;SDS011;1925;51.356;9.530;2022-09-09T00:25:49;1.57;;;1.23;;
3819;SDS011;1925;51.356;9.530;2022-09-09T00:28:21;4.30;;;1.83;;
3819;SDS011;1925;51.356;9.530;2022-09-09T00:30:48;4.70;;;1.20;;
3819;SDS011;1925;51.356;9.530;2022-09-09T00:33:15;8.87;;;1.23;;
3819;SDS011;1925;51.356;9.530;2022-09-09T00:35:54;3.23;;;1.23;;
3819;SDS011;1925;51.356;9.530;2022-09-09T00:38:31;5.57;;;1.50;;
3819;SDS011;1925;51.356;9.530;2022-09-09T00:41:09;1.63;;;1.20;;
3819;SDS011;1925;51.356;9.530;2022-09-09T00:43:37;5.43;;;1.70;;
3819;SDS011;1925;51.356;9.530;2022-09-09T00:54:05;3.80;;;1.97;;
3819;SDS011;1925;51.356;9.530;2022-09-09T00:56:37;5.87;;;1.40;;
3819;SDS011;1925;51.356;9.530;2022-09-09T01:01:36;2.70;;;1.37;;
3819;SDS011;1925;51.356;9.530;2022-09-09T01:04:04;2.00;;;1.00;;
3819;SDS011;1925;51.356;9.530;2022-09-09T01:06:34;4.00;;;1.77;;
3819;SDS011;1925;51.356;9.530;2022-09-09T01:09:07;2.67;;;1.90;;
3819;SDS011;1925;51.356;9.530;2022-09-09T01:11:43;5.23;;;2.67;;
3819;SDS011;1925;51.356;9.530;2022-09-09T01:14:35;2.13;;;1.57;;
3819;SDS011;1925;51.356;9.530;2022-09-09T01:17:15;1.77;;;1.53;;
3819;SDS011;1925;51.356;9.530;2022-09-09T01:27:29;1.90;;;1.57;;
3819;SDS011;1925;51.356;9.530;2022-09-09T01:29:56;3.53;;;1.77;;
3819;SDS011;1925;51.356;9.530;2022-09-09T01:32:42;4.03;;;1.50;;
3819;SDS011;1925;51.356;9.530;2022-09-09T01:35:10;5.97;;;2.03;;
3819;SDS011;1925;51.356;9.530;2022-09-09T01:37:36;7.87;;;1.93;;
3819;SDS011;1925;51.356;9.530;2022-09-09T01:40:03;4.77;;;1.70;;
3819;SDS011;1925;51.356;9.530;2022-09-09T01:42:29;3.17;;;1.77;;
3819;SDS011;1925;51.356;9.530;2022-09-09T01:44:55;9.00;;;2.10;;
3819;SDS011;1925;51.356;9.530;2022-09-09T01:47:21;4.07;;;1.90;;
3819;SDS011;1925;51.356;9.530;2022-09-09T01:49:47;2.80;;;1.87;;
3819;SDS011;1925;51.356;9.530;2022-09-09T01:52:13;3.80;;;2.17;;
3819;SDS011;1925;51.356;9.530;2022-09-09T01:54:39;3.53;;;2.20;;
3819;SDS011;1925;51.356;9.530;2022-09-09T02:00:04;3.73;;;2.13;;
3819;SDS011;1925;51.356;9.530;2022-09-09T02:07:41;5.60;;;2.00;;
3819;SDS011;1925;51.356;9.530;2022-09-09T02:12:36;2.10;;;1.80;;
3819;SDS011;1925;51.356;9.530;2022-09-09T02:15:05;3.67;;;1.70;;
3819;SDS011;1925;51.356;9.530;2022-09-09T02:17:34;3.20;;;1.70;;
3819;SDS011;1925;51.356;9.530;2022-09-09T02:20:06;4.23;;;1.50;;
3819;SDS011;1925;51.356;9.530;2022-09-09T02:22:33;3.33;;;1.57;;
3819;SDS011;1925;51.356;9.530;2022-09-09T02:25:01;4.07;;;1.40;;
3819;SDS011;1925;51.356;9.530;2022-09-09T02:27:28;2.80;;;1.50;;
3819;SDS011;1925;51.356;9.530;2022-09-09T02:29:54;5.30;;;1.40;;
3819;SDS011;1925;51.356;9.530;2022-09-09T02:32:23;2.20;;;1.30;;
3819;SDS011;1925;51.356;9.530;2022-09-09T02:34:50;2.40;;;1.53;;
3819;SDS011;1925;51.356;9.530;2022-09-09T02:37:19;4.50;;;1.70;;
3819;SDS011;1925;51.356;9.530;2022-09-09T02:39:46;5.40;;;1.40;;
3819;SDS011;1925;51.356;9.530;2022-09-09T02:42:12;4.03;;;1.77;;
3819;SDS011;1925;51.356;9.530;2022-09-09T02:44:40;1.93;;;1.50;;
3819;SDS011;1925;51.356;9.530;2022-09-09T02:52:05;5.33;;;2.10;;
3819;SDS011;1925;51.356;9.530;2022-09-09T02:54:33;5.13;;;2.00;;
3819;SDS011;1925;51.356;9.530;2022-09-09T02:57:11;3.80;;;1.90;;
3819;SDS011;1925;51.356;9.530;2022-09-09T02:59:38;2.60;;;1.70;;
3819;SDS011;1925;51.356;9.530;2022-09-09T03:02:05;3.07;;;1.73;;
3819;SDS011;1925;51.356;9.530;2022-09-09T03:04:31;3.47;;;1.57;;
3819;SDS011;1925;51.356;9.530;2022-09-09T03:06:57;4.00;;;1.63;;
3819;SDS011;1925;51.356;9.530;2022-09-09T03:09:23;5.10;;;1.90;;
3819;SDS011;1925;51.356;9.530;2022-09-09T03:11:51;6.60;;;2.83;;
3819;SDS011;1925;51.356;9.530;2022-09-09T03:14:17;3.30;;;1.63;;
3819;SDS011;1925;51.356;9.530;2022-09-09T03:16:46;7.67;;;3.37;;
3819;SDS011;1925;51.356;9.530;2022-09-09T03:19:13;8.30;;;2.23;;
3819;SDS011;1925;51.356;9.530;2022-09-09T03:21:39;4.60;;;2.23;;
3819;SDS011;1925;51.356;9.530;2022-09-09T03:24:05;4.87;;;2.20;;
3819;SDS011;1925;51.356;9.530;2022-09-09T03:26:31;4.33;;;1.93;;
3819;SDS011;1925;51.356;9.530;2022-09-09T03:28:57;3.10;;;2.07;;
3819;SDS011;1925;51.356;9.530;2022-09-09T03:31:25;1.83;;;1.30;;
3819;SDS011;1925;51.356;9.530;2022-09-09T03:33:54;2.50;;;1.40;;
3819;SDS011;1925;51.356;9.530;2022-09-09T03:36:22;11.97;;;1.83;;
3819;SDS011;1925;51.356;9.530;2022-09-09T03:38:48;2.70;;;1.50;;
3819;SDS011;1925;51.356;9.530;2022-09-09T03:41:14;2.80;;;1.47;;
3819;SDS011;1925;51.356;9.530;2022-09-09T03:43:40;6.37;;;1.80;;
3819;SDS011;1925;51.356;9.530;2022-09-09T03:46:06;2.87;;;1.70;;
3819;SDS011;1925;51.356;9.530;2022-09-09T03:48:32;4.00;;;1.50;;
3819;SDS011;1925;51.356;9.530;2022-09-09T03:50:59;3.00;;;1.77;;
3819;SDS011;1925;51.356;9.530;2022-09-09T03:53:26;2.57;;;1.60;;
3819;SDS011;1925;51.356;9.530;2022-09-09T03:55:53;3.50;;;1.77;;
3819;SDS011;1925;51.356;9.530;2022-09-09T03:58:20;2.50;;;1.70;;
3819;SDS011;1925;51.356;9.530;2022-09-09T04:01:00;3.87;;;1.87;;
3819;SDS011;1925;51.356;9.530;2022-09-09T04:03:26;3.27;;;2.10;;
3819;SDS011;1925;51.356;9.530;2022-09-09T04:05:53;4.20;;;1.97;;
3819;SDS011;1925;51.356;9.530;2022-09-09T04:08:19;2.10;;;1.30;;
3819;SDS011;1925;51.356;9.530;2022-09-09T04:10:46;1.70;;;1.50;;
3819;SDS011;1925;51.356;9.530;2022-09-09T04:13:13;1.90;;;1.40;;
3819;SDS011;1925;51.356;9.530;2022-09-09T04:15:40;2.83;;;1.70;;
3819;SDS011;1925;51.356;9.530;2022-09-09T04:18:06;2.97;;;1.93;;
3819;SDS011;1925;51.356;9.530;2022-09-09T04:20:32;2.50;;;1.50;;
3819;SDS011;1925;51.356;9.530;2022-09-09T04:22:58;2.57;;;1.83;;
3819;SDS011;1925;51.356;9.530;2022-09-09T04:25:24;2.50;;;1.63;;
3819;SDS011;1925;51.356;9.530;2022-09-09T04:27:54;3.63;;;1.70;;
3819;SDS011;1925;51.356;9.530;2022-09-09T04:30:20;5.87;;;2.00;;
3819;SDS011;1925;51.356;9.530;2022-09-09T04:32:46;4.30;;;2.20;;
3819;SDS011;1925;51.356;9.530;2022-09-09T04:35:12;6.07;;;2.00;;
3819;SDS011;1925;51.356;9.530;2022-09-09T04:37:38;5.00;;;1.90;;
3819;SDS011;1925;51.356;9.530;2022-09-09T04:40:04;3.87;;;1.60;;
3819;SDS011;1925;51.356;9.530;2022-09-09T04:42:34;3.13;;;2.00;;
3819;SDS011;1925;51.356;9.530;2022-09-09T04:45:01;2.57;;;1.80;;
3819;SDS011;1925;51.356;9.530;2022-09-09T04:47:27;5.80;;;2.10;;
3819;SDS011;1925;51.356;9.530;2022-09-09T04:49:53;6.37;;;2.10;;
3819;SDS011;1925;51.356;9.530;2022-09-09T04:52:19;6.10;;;1.90;;
3819;SDS011;1925;51.356;9.530;2022-09-09T04:54:45;3.13;;;1.67;;
3819;SDS011;1925;51.356;9.530;2022-09-09T04:57:11;6.20;;;2.07;;
3819;SDS011;1925;51.356;9.530;2022-09-09T04:59:37;5.00;;;1.90;;
3819;SDS011;1925;51.356;9.530;2022-09-09T05:02:04;2.30;;;1.60;;
3819;SDS011;1925;51.356;9.530;2022-09-09T05:04:30;2.00;;;1.80;;
3819;SDS011;1925;51.356;9.530;2022-09-09T05:06:56;2.83;;;1.60;;
3819;SDS011;1925;51.356;9.530;2022-09-09T05:09:22;3.40;;;1.70;;
3819;SDS011;1925;51.356;9.530;2022-09-09T05:11:48;3.20;;;1.73;;
3819;SDS011;1925;51.356;9.530;2022-09-09T05:14:14;4.80;;;1.90;;
3819;SDS011;1925;51.356;9.530;2022-09-09T05:16:41;3.10;;;1.87;;
3819;SDS011;1925;51.356;9.530;2022-09-09T05:19:09;3.83;;;2.37;;
3819;SDS011;1925;51.356;9.530;2022-09-09T05:21:35;2.30;;;2.10;;
3819;SDS011;1925;51.356;9.530;2022-09-09T05:24:02;4.07;;;1.90;;
3819;SDS011;1925;51.356;9.530;2022-09-09T05:26:27;4.30;;;2.27;;
3819;SDS011;1925;51.356;9.530;2022-09-09T05:28:54;4.87;;;1.90;;
3819;SDS011;1925;51.356;9.530;2022-09-09T05:31:20;2.70;;;1.20;;
3819;SDS011;1925;51.356;9.530;2022-09-09T05:33:47;7.20;;;2.13;;
3819;SDS011;1925;51.356;9.530;2022-09-09T05:36:15;5.10;;;2.17;;
3819;SDS011;1925;51.356;9.530;2022-09-09T05:38:42;3.23;;;1.37;;
3819;SDS011;1925;51.356;9.530;2022-09-09T05:41:08;4.87;;;2.27;;
3819;SDS011;1925;51.356;9.530;2022-09-09T05:43:36;4.63;;;1.90;;
3819;SDS011;1925;51.356;9.530;2022-09-09T05:46:06;3.47;;;1.90;;
3819;SDS011;1925;51.356;9.530;2022-09-09T05:48:33;1.83;;;1.33;;
3819;SDS011;1925;51.356;9.530;2022-09-09T05:51:00;9.00;;;1.50;;
3819;SDS011;1925;51.356;9.530;2022-09-09T05:53:27;2.50;;;2.30;;
3819;SDS011;1925;51.356;9.530;2022-09-09T05:56:10;4.50;;;2.17;;
3819;SDS011;1925;51.356;9.530;2022-09-09T05:58:37;6.23;;;1.97;;
3819;SDS011;1925;51.356;9.530;2022-09-09T06:01:07;4.67;;;2.03;;
3819;SDS011;1925;51.356;9.530;2022-09-09T06:03:35;7.33;;;2.17;;
3819;SDS011;1925;51.356;9.530;2022-09-09T06:06:02;2.67;;;1.50;;
3819;SDS011;1925;51.356;9.530;2022-09-09T06:08:30;3.23;;;1.77;;
3819;SDS011;1925;51.356;9.530;2022-09-09T06:11:06;4.87;;;2.43;;
3819;SDS011;1925;51.356;9.530;2022-09-09T06:13:33;3.00;;;1.93;;
3819;SDS011;1925;51.356;9.530;2022-09-09T06:16:00;4.10;;;2.20;;
3819;SDS011;1925;51.356;9.530;2022-09-09T06:18:26;3.50;;;2.50;;
3819;SDS011;1925;51.356;9.530;2022-09-09T06:21:02;2.47;;;1.60;;
3819;SDS011;1925;51.356;9.530;2022-09-09T06:23:29;4.00;;;1.30;;
3819;SDS011;1925;51.356;9.530;2022-09-09T06:26:05;5.90;;;1.93;;
3819;SDS011;1925;51.356;9.530;2022-09-09T06:28:34;3.80;;;1.63;;
3819;SDS011;1925;51.356;9.530;2022-09-09T06:31:02;3.33;;;1.97;;
3819;SDS011;1925;51.356;9.530;2022-09-09T06:33:39;3.67;;;1.77;;
3819;SDS011;1925;51.356;9.530;2022-09-09T06:36:06;4.00;;;2.50;;
3819;SDS011;1925;51.356;9.530;2022-09-09T06:38:32;3.83;;;2.33;;
3819;SDS011;1925;51.356;9.530;2022-09-09T06:40:59;4.03;;;1.90;;
3819;SDS011;1925;51.356;9.530;2022-09-09T06:43:25;4.47;;;2.00;;
3819;SDS011;1925;51.356;9.530;2022-09-09T06:45:58;3.03;;;2.10;;
3819;SDS011;1925;51.356;9.530;2022-09-09T06:48:25;3.83;;;1.43;;
3819;SDS011;1925;51.356;9.530;2022-09-09T06:51:12;5.67;;;1.80;;
3819;SDS011;1925;51.356;9.530;2022-09-09T06:53:38;3.90;;;2.20;;
3819;SDS011;1925;51.356;9.530;2022-09-09T06:56:21;2.73;;;1.77;;
3819;SDS011;1925;51.356;9.530;2022-09-09T06:58:48;8.87;;;1.80;;
3819;SDS011;1925;51.356;9.530;2022-09-09T07:01:18;2.30;;;1.20;;
3819;SDS011;1925;51.356;9.530;2022-09-09T07:03:46;4.23;;;1.57;;
3819;SDS011;1925;51.356;9.530;2022-09-09T07:06:14;2.87;;;1.63;;
3819;SDS011;1925;51.356;9.530;2022-09-09T07:08:42;3.90;;;1.60;;
3819;SDS011;1925;51.356;9.530;2022-09-09T07:11:08;2.97;;;1.50;;
3819;SDS011;1925;51.356;9.530;2022-09-09T07:13:34;3.53;;;1.53;;
3819;SDS011;1925;51.356;9.530;2022-09-09T07:16:04;5.57;;;2.33;;
3819;SDS011;1925;51.356;9.530;2022-09-09T07:18:30;4.73;;;1.33;;
3819;SDS011;1925;51.356;9.530;2022-09-09T07:20:56;4.00;;;1.70;;
3819;SDS011;1925;51.356;9.530;2022-09-09T07:23:23;6.57;;;1.50;;
3819;SDS011;1925;51.356;9.530;2022-09-09T07:25:49;3.90;;;1.73;;
3819;SDS011;1925;51.356;9.530;2022-09-09T07:28:15;6.00;;;2.47;;
3819;SDS011;1925;51.356;9.530;2022-09-09T07:30:42;3.37;;;2.13;;
3819;SDS011;1925;51.356;9.530;2022-09-09T07:33:08;4.10;;;1.97;;
3819;SDS011;1925;51.356;9.530;2022-09-09T07:35:35;3.80;;;2.23;;
3819;SDS011;1925;51.356;9.530;2022-09-09T07:38:02;10.30;;;2.37;;
3819;SDS011;1925;51.356;9.530;2022-09-09T07:40:29;3.70;;;2.07;;
3819;SDS011;1925;51.356;9.530;2022-09-09T07:42:56;3.67;;;1.67;;
3819;SDS011;1925;51.356;9.530;2022-09-09T07:45:22;4.93;;;2.13;;
3819;SDS011;1925;51.356;9.530;2022-09-09T07:47:48;3.53;;;1.83;;
3819;SDS011;1925;51.356;9.530;2022-09-09T07:50:14;3.57;;;1.73;;
3819;SDS011;1925;51.356;9.530;2022-09-09T07:52:40;5.57;;;2.20;;
3819;SDS011;1925;51.356;9.530;2022-09-09T07:55:06;4.93;;;1.90;;
3819;SDS011;1925;51.356;9.530;2022-09-09T07:57:34;2.50;;;2.07;;
3819;SDS011;1925;51.356;9.530;2022-09-09T08:00:00;2.20;;;1.67;;
3819;SDS011;1925;51.356;9.530;2022-09-09T08:02:27;3.37;;;1.80;;
3819;SDS011;1925;51.356;9.530;2022-09-09T08:04:54;4.07;;;1.57;;
3819;SDS011;1925;51.356;9.530;2022-09-09T08:07:21;6.10;;;2.30;;
3819;SDS011;1925;51.356;9.530;2022-09-09T08:09:47;4.07;;;1.93;;
3819;SDS011;1925;51.356;9.530;2022-09-09T08:12:14;4.30;;;2.00;;
3819;SDS011;1925;51.356;9.530;2022-09-09T08:14:40;3.60;;;1.80;;
3819;SDS011;1925;51.356;9.530;2022-09-09T08:17:06;4.00;;;2.07;;
3819;SDS011;1925;51.356;9.530;2022-09-09T08:19:32;4.63;;;1.80;;
3819;SDS011;1925;51.356;9.530;2022-09-09T08:22:00;5.43;;;1.87;;
3819;SDS011;1925;51.356;9.530;2022-09-09T08:24:27;7.53;;;1.90;;
3819;SDS011;1925;51.356;9.530;2022-09-09T08:26:53;2.47;;;1.40;;
3819;SDS011;1925;51.356;9.530;2022-09-09T08:29:21;6.97;;;2.17;;
3819;SDS011;1925;51.356;9.530;2022-09-09T08:31:51;3.60;;;1.70;;
3819;SDS011;1925;51.356;9.530;2022-09-09T08:34:19;3.40;;;2.50;;
3819;SDS011;1925;51.356;9.530;2022-09-09T08:36:45;2.77;;;1.80;;
3819;SDS011;1925;51.356;9.530;2022-09-09T08:39:12;4.73;;;2.37;;
3819;SDS011;1925;51.356;9.530;2022-09-09T08:49:21;3.87;;;1.70;;
3819;SDS011;1925;51.356;9.530;2022-09-09T08:51:50;5.40;;;1.97;;
3819;SDS011;1925;51.356;9.530;2022-09-09T08:54:20;5.33;;;1.70;;
3819;SDS011;1925;51.356;9.530;2022-09-09T08:56:46;5.10;;;2.07;;
3819;SDS011;1925;51.356;9.530;2022-09-09T08:59:13;5.30;;;2.10;;
3819;SDS011;1925;51.356;9.530;2022-09-09T09:04:15;2.13;;;1.27;;
3819;SDS011;1925;51.356;9.530;2022-09-09T09:06:50;8.20;;;1.90;;
3819;SDS011;1925;51.356;9.530;2022-09-09T09:11:58;2.60;;;1.40;;
3819;SDS011;1925;51.356;9.530;2022-09-09T09:14:29;5.87;;;1.57;;
3819;SDS011;1925;51.356;9.530;2022-09-09T09:19:44;3.73;;;1.30;;
3819;SDS011;1925;51.356;9.530;2022-09-09T09:25:23;6.10;;;1.60;;
3819;SDS011;1925;51.356;9.530;2022-09-09T09:30:36;3.87;;;1.70;;
3819;SDS011;1925;51.356;9.530;2022-09-09T09:33:24;3.80;;;1.20;;
3819;SDS011;1925;51.356;9.530;2022-09-09T09:35:52;3.10;;;1.47;;
3819;SDS011;1925;51.356;9.530;2022-09-09T09:38:25;1.60;;;1.23;;
3819;SDS011;1925;51.356;9.530;2022-09-09T09:40:53;4.73;;;1.87;;
3819;SDS011;1925;51.356;9.530;2022-09-09T09:43:35;10.00;;;1.67;;
3819;SDS011;1925;51.356;9.530;2022-09-09T09:46:04;5.50;;;1.47;;
3819;SDS011;1925;51.356;9.530;2022-09-09T09:48:30;2.90;;;1.73;;
3819;SDS011;1925;51.356;9.530;2022-09-09T09:51:08;3.50;;;1.63;;
3819;SDS011;1925;51.356;9.530;2022-09-09T09:53:36;3.30;;;1.40;;
3819;SDS011;1925;51.356;9.530;2022-09-09T09:56:09;2.13;;;1.17;;
3819;SDS011;1925;51.356;9.530;2022-09-09T09:58:56;2.97;;;1.33;;
3819;SDS011;1925;51.356;9.530;2022-09-09T10:01:23;3.57;;;1.40;;
3819;SDS011;1925;51.356;9.530;2022-09-09T10:06:35;2.47;;;1.20;;
3819;SDS011;1925;51.356;9.530;2022-09-09T10:09:03;5.20;;;1.60;;
3819;SDS011;1925;51.356;9.530;2022-09-09T10:19:10;5.57;;;1.27;;
3819;SDS011;1925;51.356;9.530;2022-09-09T10:29:38;2.60;;;1.60;;
3819;SDS011;1925;51.356;9.530;2022-09-09T10:37:08;5.03;;;1.43;;
3819;SDS011;1925;51.356;9.530;2022-09-09T10:39:40;5.90;;;1.23;;
3819;SDS011;1925;51.356;9.530;2022-09-09T10:42:07;2.03;;;1.00;;
3819;SDS011;1925;51.356;9.530;2022-09-09T10:44:50;3.90;;;1.37;;
3819;SDS011;1925;51.356;9.530;2022-09-09T10:47:31;2.70;;;1.10;;
3819;SDS011;1925;51.356;9.530;2022-09-09T10:52:31;2.77;;;1.37;;
3819;SDS011;1925;51.356;9.530;2022-09-09T10:55:00;5.03;;;1.00;;
3819;SDS011;1925;51.356;9.530;2022-09-09T10:59:55;4.03;;;1.40;;
3819;SDS011;1925;51.356;9.530;2022-09-09T11:02:27;2.80;;;1.13;;
3819;SDS011;1925;51.356;9.530;2022-09-09T11:07:25;2.37;;;1.10;;
3819;SDS011;1925;51.356;9.530;2022-09-09T11:09:53;8.90;;;1.43;;
3819;SDS011;1925;51.356;9.530;2022-09-09T11:12:21;3.53;;;1.10;;
3819;SDS011;1925;51.356;9.530;2022-09-09T11:14:57;6.90;;;1.20;;
3819;SDS011;1925;51.356;9.530;2022-09-09T11:17:24;5.80;;;1.50;;
3819;SDS011;1925;51.356;9.530;2022-09-09T11:19:52;4.37;;;2.10;;
3819;SDS011;1925;51.356;9.530;2022-09-09T11:27:21;3.83;;;0.80;;
3819;SDS011;1925;51.356;9.530;2022-09-09T11:40:34;2.30;;;1.17;;
3819;SDS011;1925;51.356;9.530;2022-09-09T11:43:10;2.40;;;1.10;;
3819;SDS011;1925;51.356;9.530;2022-09-09T11:45:38;6.37;;;1.23;;
3819;SDS011;1925;51.356;9.530;2022-09-09T11:48:04;3.03;;;1.80;;
3819;SDS011;1925;51.356;9.530;2022-09-09T11:50:35;3.53;;;1.80;;
3819;SDS011;1925;51.356;9.530;2022-09-09T11:55:39;4.20;;;1.30;;
3819;SDS011;1925;51.356;9.530;2022-09-09T11:58:15;4.03;;;1.63;;
3819;SDS011;1925;51.356;9.530;2022-09-09T12:00:41;2.50;;;1.07;;
3819;SDS011;1925;51.356;9.530;2022-09-09T12:05:54;1.97;;;1.10;;
3819;SDS011;1925;51.356;9.530;2022-09-09T12:08:24;3.07;;;1.40;;
3819;SDS011;1925;51.356;9.530;2022-09-09T12:10:58;6.87;;;1.80;;
3819;SDS011;1925;51.356;9.530;2022-09-09T12:13:28;5.13;;;1.93;;
3819;SDS011;1925;51.356;9.530;2022-09-09T12:15:57;3.67;;;0.87;;
3819;SDS011;1925;51.356;9.530;2022-09-09T12:21:18;3.80;;;1.13;;
3819;SDS011;1925;51.356;9.530;2022-09-09T12:31:14;7.43;;;1.40;;
3819;SDS011;1925;51.356;9.530;2022-09-09T12:33:43;2.20;;;1.33;;
3819;SDS011;1925;51.356;9.530;2022-09-09T12:36:15;1.20;;;1.10;;
3819;SDS011;1925;51.356;9.530;2022-09-09T12:38:42;3.73;;;1.30;;
3819;SDS011;1925;51.356;9.530;2022-09-09T12:41:26;10.10;;;1.97;;
3819;SDS011;1925;51.356;9.530;2022-09-09T12:44:03;3.53;;;2.07;;
3819;SDS011;1925;51.356;9.530;2022-09-09T12:46:40;1.53;;;1.33;;
3819;SDS011;1925;51.356;9.530;2022-09-09T12:51:52;1.80;;;1.30;;
3819;SDS011;1925;51.356;9.530;2022-09-09T12:54:18;3.13;;;1.40;;
3819;SDS011;1925;51.356;9.530;2022-09-09T12:56:45;2.23;;;1.27;;
3819;SDS011;1925;51.356;9.530;2022-09-09T12:59:23;9.63;;;1.43;;
3819;SDS011;1925;51.356;9.530;2022-09-09T13:01:55;2.60;;;1.13;;
3819;SDS011;1925;51.356;9.530;2022-09-09T13:04:21;2.83;;;0.70;;
3819;SDS011;1925;51.356;9.530;2022-09-09T13:06:47;4.10;;;0.83;;
3819;SDS011;1925;51.356;9.530;2022-09-09T13:09:14;2.40;;;0.60;;
3819;SDS011;1925;51.356;9.530;2022-09-09T13:11:43;2.23;;;0.60;;
3819;SDS011;1925;51.356;9.530;2022-09-09T13:14:15;1.00;;;0.60;;
3819;SDS011;1925;51.356;9.530;2022-09-09T13:16:43;0.70;;;0.63;;
3819;SDS011;1925;51.356;9.530;2022-09-09T13:19:13;1.37;;;0.63;;
3819;SDS011;1925;51.356;9.530;2022-09-09T13:21:40;1.80;;;0.80;;
3819;SDS011;1925;51.356;9.530;2022-09-09T13:26:59;2.20;;;0.97;;
3819;SDS011;1925;51.356;9.530;2022-09-09T13:29:27;4.53;;;0.80;;
3819;SDS011;1925;51.356;9.530;2022-09-09T13:31:53;1.47;;;0.93;;
3819;SDS011;1925;51.356;9.530;2022-09-09T13:34:31;3.27;;;0.80;;
3819;SDS011;1925;51.356;9.530;2022-09-09T13:37:01;1.20;;;0.80;;
3819;SDS011;1925;51.356;9.530;2022-09-09T13:39:28;1.63;;;0.80;;
3819;SDS011;1925;51.356;9.530;2022-09-09T13:41:54;5.33;;;1.00;;
3819;SDS011;1925;51.356;9.530;2022-09-09T13:44:21;7.23;;;0.90;;
3819;SDS011;1925;51.356;9.530;2022-09-09T13:46:58;3.07;;;1.10;;
3819;SDS011;1925;51.356;9.530;2022-09-09T13:49:26;2.90;;;0.90;;
3819;SDS011;1925;51.356;9.530;2022-09-09T13:52:02;1.67;;;1.10;;
3819;SDS011;1925;51.356;9.530;2022-09-09T13:54:29;4.20;;;1.30;;
3819;SDS011;1925;51.356;9.530;2022-09-09T13:56:55;6.10;;;2.00;;
3819;SDS011;1925;51.356;9.530;2022-09-09T13:59:21;3.17;;;1.17;;
3819;SDS011;1925;51.356;9.530;2022-09-09T14:01:49;2.03;;;1.20;;
3819;SDS011;1925;51.356;9.530;2022-09-09T14:04:17;3.33;;;1.00;;
3819;SDS011;1925;51.356;9.530;2022-09-09T14:06:45;2.27;;;1.00;;
3819;SDS011;1925;51.356;9.530;2022-09-09T14:09:12;2.60;;;1.23;;
3819;SDS011;1925;51.356;9.530;2022-09-09T14:11:40;5.70;;;0.97;;
3819;SDS011;1925;51.356;9.530;2022-09-09T14:14:06;4.43;;;1.13;;
3819;SDS011;1925;51.356;9.530;2022-09-09T14:16:32;2.53;;;0.87;;
3819;SDS011;1925;51.356;9.530;2022-09-09T14:18:58;4.77;;;1.20;;
3819;SDS011;1925;51.356;9.530;2022-09-09T14:21:24;2.43;;;0.90;;
3819;SDS011;1925;51.356;9.530;2022-09-09T14:23:50;4.70;;;1.50;;
3819;SDS011;1925;51.356;9.530;2022-09-09T14:26:17;1.07;;;0.90;;
3819;SDS011;1925;51.356;9.530;2022-09-09T14:28:45;2.40;;;0.90;;
3819;SDS011;1925;51.356;9.530;2022-09-09T14:31:11;3.10;;;1.10;;
3819;SDS011;1925;51.356;9.530;2022-09-09T14:33:38;6.67;;;1.40;;
3819;SDS011;1925;51.356;9.530;2022-09-09T14:36:04;3.77;;;1.17;;
3819;SDS011;1925;51.356;9.530;2022-09-09T14:38:34;2.80;;;1.17;;
3819;SDS011;1925;51.356;9.530;2022-09-09T14:41:04;2.80;;;1.10;;
3819;SDS011;1925;51.356;9.530;2022-09-09T14:43:30;4.80;;;1.33;;
3819;SDS011;1925;51.356;9.530;2022-09-09T14:45:57;2.30;;;0.90;;
3819;SDS011;1925;51.356;9.530;2022-09-09T14:48:23;1.73;;;0.97;;
3819;SDS011;1925;51.356;9.530;2022-09-09T14:50:49;5.20;;;1.53;;
3819;SDS011;1925;51.356;9.530;2022-09-09T14:53:16;2.00;;;0.87;;
3819;SDS011;1925;51.356;9.530;2022-09-09T14:55:42;3.67;;;1.20;;
3819;SDS011;1925;51.356;9.530;2022-09-09T14:58:08;2.07;;;1.10;;
3819;SDS011;1925;51.356;9.530;2022-09-09T15:00:34;2.17;;;0.83;;
3819;SDS011;1925;51.356;9.530;2022-09-09T15:03:00;1.77;;;0.80;;
3819;SDS011;1925;51.356;9.530;2022-09-09T15:05:26;1.77;;;1.20;;
3819;SDS011;1925;51.356;9.530;2022-09-09T15:07:53;2.60;;;1.00;;
3819;SDS011;1925;51.356;9.530;2022-09-09T15:10:19;2.70;;;1.00;;
3819;SDS011;1925;51.356;9.530;2022-09-09T15:12:46;2.67;;;1.03;;
3819;SDS011;1925;51.356;9.530;2022-09-09T15:15:11;3.83;;;1.20;;
3819;SDS011;1925;51.356;9.530;2022-09-09T15:17:38;3.40;;;1.20;;
3819;SDS011;1925;51.356;9.530;2022-09-09T15:20:04;2.30;;;0.83;;
3819;SDS011;1925;51.356;9.530;2022-09-09T15:22:33;4.50;;;2.07;;
3819;SDS011;1925;51.356;9.530;2022-09-09T15:25:01;1.30;;;0.90;;
3819;SDS011;1925;51.356;9.530;2022-09-09T15:27:27;1.90;;;0.93;;
3819;SDS011;1925;51.356;9.530;2022-09-09T15:29:53;1.77;;;0.80;;
3819;SDS011;1925;51.356;9.530;2022-09-09T15:32:20;3.93;;;1.20;;
3819;SDS011;1925;51.356;9.530;2022-09-09T15:34:46;5.27;;;1.00;;
3819;SDS011;1925;51.356;9.530;2022-09-09T15:37:12;3.53;;;1.30;;
3819;SDS011;1925;51.356;9.530;2022-09-09T15:39:38;2.80;;;0.80;;
3819;SDS011;1925;51.356;9.530;2022-09-09T15:42:05;2.50;;;1.00;;
3819;SDS011;1925;51.356;9.530;2022-09-09T15:44:39;2.13;;;1.00;;
3819;SDS011;1925;51.356;9.530;2022-09-09T15:47:07;2.67;;;0.83;;
3819;SDS011;1925;51.356;9.530;2022-09-09T15:49:33;2.83;;;0.97;;
3819;SDS011;1925;51.356;9.530;2022-09-09T15:51:59;3.90;;;0.90;;
3819;SDS011;1925;51.356;9.530;2022-09-09T15:54:33;2.63;;;0.93;;
3819;SDS011;1925;51.356;9.530;2022-09-09T15:57:00;3.53;;;1.10;;
3819;SDS011;1925;51.356;9.530;2022-09-09T15:59:27;2.70;;;1.10;;
3819;SDS011;1925;51.356;9.530;2022-09-09T16:01:54;2.27;;;0.83;;
3819;SDS011;1925;51.356;9.530;2022-09-09T16:04:21;5.33;;;1.57;;
3819;SDS011;1925;51.356;9.530;2022-09-09T16:06:50;2.57;;;0.93;;
3819;SDS011;1925;51.356;9.530;2022-09-09T16:09:17;2.97;;;1.03;;
3819;SDS011;1925;51.356;9.530;2022-09-09T16:11:43;10.00;;;1.30;;
3819;SDS011;1925;51.356;9.530;2022-09-09T16:14:09;1.60;;;0.90;;
3819;SDS011;1925;51.356;9.530;2022-09-09T16:16:35;2.20;;;0.90;;
3819;SDS011;1925;51.356;9.530;2022-09-09T16:19:05;2.40;;;0.80;;
3819;SDS011;1925;51.356;9.530;2022-09-09T16:21:32;2.60;;;1.00;;
3819;SDS011;1925;51.356;9.530;2022-09-09T16:24:00;4.90;;;1.30;;
3819;SDS011;1925;51.356;9.530;2022-09-09T16:26:26;2.30;;;0.90;;
3819;SDS011;1925;51.356;9.530;2022-09-09T16:28:53;2.93;;;1.30;;
3819;SDS011;1925;51.356;9.530;2022-09-09T16:31:23;4.07;;;1.20;;
3819;SDS011;1925;51.356;9.530;2022-09-09T16:33:49;2.80;;;1.10;;
3819;SDS011;1925;51.356;9.530;2022-09-09T16:36:20;4.30;;;0.93;;
3819;SDS011;1925;51.356;9.530;2022-09-09T16:38:46;2.93;;;1.13;;
3819;SDS011;1925;51.356;9.530;2022-09-09T16:41:13;2.50;;;1.07;;
3819;SDS011;1925;51.356;9.530;2022-09-09T16:43:39;1.90;;;1.33;;
3819;SDS011;1925;51.356;9.530;2022-09-09T16:46:15;2.20;;;0.80;;
3819;SDS011;1925;51.356;9.530;2022-09-09T16:48:42;2.03;;;1.60;;
3819;SDS011;1925;51.356;9.530;2022-09-09T16:51:11;3.20;;;1.30;;
3819;SDS011;1925;51.356;9.530;2022-09-09T16:53:39;2.37;;;1.20;;
3819;SDS011;1925;51.356;9.530;2022-09-09T16:56:07;1.43;;;1.10;;
3819;SDS011;1925;51.356;9.530;2022-09-09T16:58:33;1.17;;;0.87;;
3819;SDS011;1925;51.356;9.530;2022-09-09T17:01:00;2.30;;;0.80;;
3819;SDS011;1925;51.356;9.530;2022-09-09T17:03:27;8.93;;;1.47;;
3819;SDS011;1925;51.356;9.530;2022-09-09T17:05:53;4.30;;;1.40;;
3819;SDS011;1925;51.356;9.530;2022-09-09T17:08:19;2.63;;;1.20;;
3819;SDS011;1925;51.356;9.530;2022-09-09T17:10:45;1.53;;;0.83;;
3819;SDS011;1925;51.356;9.530;2022-09-09T17:13:12;6.20;;;1.23;;
3819;SDS011;1925;51.356;9.530;2022-09-09T17:15:39;2.40;;;1.00;;
3819;SDS011;1925;51.356;9.530;2022-09-09T17:18:07;3.20;;;0.90;;
3819;SDS011;1925;51.356;9.530;2022-09-09T17:20:35;3.37;;;0.90;;
3819;SDS011;1925;51.356;9.530;2022-09-09T17:23:01;4.20;;;1.20;;
3819;SDS011;1925;51.356;9.530;2022-09-09T17:25:27;1.20;;;0.80;;
3819;SDS011;1925;51.356;9.530;2022-09-09T17:27:53;1.67;;;0.80;;
3819;SDS011;1925;51.356;9.530;2022-09-09T17:30:19;2.10;;;0.80;;
3819;SDS011;1925;51.356;9.530;2022-09-09T17:32:45;2.97;;;0.93;;
3819;SDS011;1925;51.356;9.530;2022-09-09T17:35:11;5.37;;;0.90;;